createdAt,value
2023-02-04T00:00:50.311Z,9.60
2023-02-04T00:03:17.940Z,9.50
2023-02-04T00:05:45.696Z,9.50
2023-02-04T00:08:13.311Z,9.40
2023-02-04T00:10:40.900Z,9.40
2023-02-04T00:13:10.142Z,9.40
2023-02-04T00:15:37.793Z,9.30
2023-02-04T00:18:07.145Z,9.30
2023-02-04T00:20:34.922Z,9.30
2023-02-04T00:23:02.567Z,9.20
2023-02-04T00:25:30.161Z,9.20
2023-02-04T00:27:57.818Z,9.20
2023-02-04T00:30:26.031Z,9.20
2023-02-04T00:32:55.028Z,9.20
2023-02-04T00:35:24.183Z,9.20
2023-02-04T00:37:52.076Z,9.20
2023-02-04T00:40:19.812Z,9.20
2023-02-04T00:42:47.369Z,9.10
2023-02-04T00:45:14.982Z,9.20
2023-02-04T00:47:45.823Z,9.20
2023-02-04T00:50:13.490Z,9.10
2023-02-04T00:52:43.345Z,9.10
2023-02-04T00:55:12.240Z,9.10
2023-02-04T00:57:39.924Z,9.20
2023-02-04T01:00:09.154Z,9.20
2023-02-04T01:02:36.850Z,9.20
2023-02-04T01:05:04.561Z,9.20
2023-02-04T01:07:32.223Z,9.20
2023-02-04T01:10:01.234Z,9.10
2023-02-04T01:12:28.916Z,9.10
2023-02-04T01:14:56.937Z,9.10
2023-02-04T01:17:25.050Z,9.00
2023-02-04T01:19:52.641Z,9.10
2023-02-04T01:22:20.303Z,9.00
2023-02-04T01:24:50.752Z,8.90
2023-02-04T01:27:18.478Z,8.90
2023-02-04T01:29:48.559Z,9.00
2023-02-04T01:32:16.149Z,8.90
2023-02-04T01:34:44.556Z,8.90
2023-02-04T01:37:12.080Z,8.80
2023-02-04T01:39:39.678Z,8.80
2023-02-04T01:42:07.628Z,8.80
2023-02-04T01:44:35.492Z,8.70
2023-02-04T01:47:03.272Z,8.70
2023-02-04T01:49:31.282Z,8.70
2023-02-04T01:51:59.116Z,8.70
2023-02-04T01:54:27.389Z,8.70
2023-02-04T01:56:55.529Z,8.70
2023-02-04T01:59:23.628Z,8.60
2023-02-04T02:01:54.519Z,8.50
2023-02-04T02:04:33.628Z,8.50
2023-02-04T02:07:06.967Z,8.50
2023-02-04T02:09:34.937Z,8.50
2023-02-04T02:12:04.678Z,8.40
2023-02-04T02:14:32.444Z,8.30
2023-02-04T02:17:01.431Z,8.30
2023-02-04T02:19:34.997Z,8.20
2023-02-04T02:22:43.456Z,8.20
2023-02-04T02:25:14.879Z,8.10
2023-02-04T02:27:43.489Z,8.10
2023-02-04T02:30:14.819Z,8.10
2023-02-04T02:32:42.414Z,8.10
2023-02-04T02:35:10.279Z,8.00
2023-02-04T02:37:37.922Z,8.00
2023-02-04T02:40:06.497Z,8.00
2023-02-04T02:42:34.386Z,7.90
2023-02-04T02:45:06.847Z,8.00
2023-02-04T02:47:34.465Z,7.90
2023-02-04T02:50:02.044Z,7.90
2023-02-04T02:52:32.369Z,7.90
2023-02-04T02:55:00.026Z,7.90
2023-02-04T02:57:27.725Z,7.90
2023-02-04T02:59:56.484Z,7.90
2023-02-04T03:02:24.685Z,8.00
2023-02-04T03:04:58.096Z,7.90
2023-02-04T03:07:25.887Z,7.90
2023-02-04T03:09:56.513Z,7.80
2023-02-04T03:12:24.143Z,7.80
2023-02-04T03:14:51.842Z,7.90
2023-02-04T03:17:22.725Z,7.90
2023-02-04T03:19:50.491Z,7.90
2023-02-04T03:22:18.227Z,7.90
2023-02-04T03:24:48.888Z,7.90
2023-02-04T03:27:16.565Z,7.80
2023-02-04T03:29:45.325Z,7.80
2023-02-04T03:32:15.569Z,7.80
2023-02-04T03:34:43.230Z,7.80
2023-02-04T03:37:10.864Z,7.70
2023-02-04T03:39:38.550Z,7.80
2023-02-04T03:42:06.223Z,7.80
2023-02-04T03:44:33.831Z,7.80
2023-02-04T03:47:01.400Z,7.80
2023-02-04T03:49:28.958Z,7.80
2023-02-04T03:51:56.609Z,7.80
2023-02-04T03:54:24.479Z,7.80
2023-02-04T03:56:52.034Z,7.80
2023-02-04T03:59:22.670Z,7.80
2023-02-04T04:01:53.647Z,7.80
2023-02-04T04:04:21.240Z,7.80
2023-02-04T04:06:48.850Z,7.90
2023-02-04T04:09:16.470Z,7.80
2023-02-04T04:11:46.980Z,7.80
2023-02-04T04:14:14.569Z,7.80
2023-02-04T04:16:45.145Z,7.80
2023-02-04T04:19:12.737Z,7.80
2023-02-04T04:21:40.359Z,7.80
2023-02-04T04:24:07.963Z,7.80
2023-02-04T04:26:35.547Z,7.80
2023-02-04T04:29:03.115Z,7.70
2023-02-04T04:31:30.781Z,7.70
2023-02-04T04:33:58.515Z,7.80
2023-02-04T04:36:26.051Z,7.80
2023-02-04T04:38:53.608Z,7.80
2023-02-04T04:41:21.199Z,7.80
2023-02-04T04:43:48.808Z,7.80
2023-02-04T04:46:16.390Z,7.80
2023-02-04T04:48:43.949Z,7.80
2023-02-04T04:51:11.630Z,7.80
2023-02-04T04:53:39.211Z,7.80
2023-02-04T04:56:06.978Z,7.80
2023-02-04T04:58:34.660Z,7.80
2023-02-04T05:01:02.456Z,7.70
2023-02-04T05:03:30.145Z,7.80
2023-02-04T05:05:57.779Z,7.80
2023-02-04T05:08:25.382Z,7.70
2023-02-04T05:10:52.908Z,7.70
2023-02-04T05:13:20.490Z,7.60
2023-02-04T05:15:48.063Z,7.60
2023-02-04T05:18:15.615Z,7.60
2023-02-04T05:20:43.202Z,7.60
2023-02-04T05:23:10.749Z,7.60
2023-02-04T05:25:38.718Z,7.60
2023-02-04T05:28:06.392Z,7.60
2023-02-04T05:30:34.292Z,7.60
2023-02-04T05:33:02.401Z,7.60
2023-02-04T05:35:29.963Z,7.60
2023-02-04T05:37:57.592Z,7.60
2023-02-04T05:40:25.381Z,7.70
2023-02-04T05:42:53.031Z,7.60
2023-02-04T05:45:20.627Z,7.70
2023-02-04T05:47:48.551Z,7.60
2023-02-04T05:50:16.308Z,7.60
2023-02-04T05:52:43.967Z,7.60
2023-02-04T05:55:12.545Z,7.60
2023-02-04T05:57:42.917Z,7.70
2023-02-04T06:00:12.322Z,7.70
2023-02-04T06:02:39.988Z,7.60
2023-02-04T06:05:07.844Z,7.60
2023-02-04T06:07:35.463Z,7.60
2023-02-04T06:10:03.376Z,7.60
2023-02-04T06:12:31.044Z,7.60
2023-02-04T06:14:59.965Z,7.60
2023-02-04T06:17:27.645Z,7.60
2023-02-04T06:19:55.748Z,7.60
2023-02-04T06:22:24.620Z,7.50
2023-02-04T06:24:52.328Z,7.60
2023-02-04T06:27:23.311Z,7.60
2023-02-04T06:29:52.652Z,7.60
2023-02-04T06:32:21.147Z,7.50
2023-02-04T06:34:48.793Z,7.60
2023-02-04T06:37:17.067Z,7.60
2023-02-04T06:39:44.679Z,7.50
2023-02-04T06:42:15.028Z,7.50
2023-02-04T06:44:42.614Z,7.50
2023-02-04T06:47:10.253Z,7.50
2023-02-04T06:49:37.890Z,7.50
2023-02-04T06:52:05.821Z,7.50
2023-02-04T06:54:33.456Z,7.50
2023-02-04T06:57:06.587Z,7.50
2023-02-04T06:59:39.551Z,7.60
2023-02-04T07:02:08.131Z,7.60
2023-02-04T07:04:35.718Z,7.60
2023-02-04T07:07:03.537Z,7.50
2023-02-04T07:09:31.113Z,7.60
2023-02-04T07:11:58.992Z,7.60
2023-02-04T07:14:26.577Z,7.60
2023-02-04T07:16:54.206Z,7.60
2023-02-04T07:19:24.967Z,7.60
2023-02-04T07:21:56.524Z,7.60
2023-02-04T07:24:24.427Z,7.60
2023-02-04T07:26:52.146Z,7.50
2023-02-04T07:29:25.061Z,7.60
2023-02-04T07:31:53.693Z,7.60
2023-02-04T07:34:24.965Z,7.60
2023-02-04T07:36:52.577Z,7.60
2023-02-04T07:39:20.220Z,7.60
2023-02-04T07:41:47.851Z,7.60
2023-02-04T07:44:17.729Z,7.60
2023-02-04T07:46:45.333Z,7.70
2023-02-04T07:49:12.924Z,7.60
2023-02-04T07:51:43.175Z,7.60
2023-02-04T07:54:10.931Z,7.90
2023-02-04T07:56:38.565Z,7.80
2023-02-04T07:59:06.272Z,7.90
2023-02-04T08:01:34.111Z,7.90
2023-02-04T08:04:02.297Z,7.90
2023-02-04T08:06:29.933Z,8.10
2023-02-04T08:08:57.569Z,8.10
2023-02-04T08:11:27.085Z,8.20
2023-02-04T08:13:54.752Z,8.10
2023-02-04T08:16:22.498Z,8.20
2023-02-04T08:18:52.796Z,8.20
2023-02-04T08:21:20.414Z,8.30
2023-02-04T08:23:48.067Z,8.40
2023-02-04T08:26:18.824Z,8.40
2023-02-04T08:28:46.501Z,8.50
2023-02-04T08:31:14.933Z,8.50
2023-02-04T08:33:45.634Z,8.50
2023-02-04T08:36:13.295Z,8.50
2023-02-04T08:38:42.896Z,8.50
2023-02-04T08:41:10.960Z,8.70
2023-02-04T08:43:38.644Z,8.90
2023-02-04T08:46:06.530Z,8.90
2023-02-04T08:48:34.286Z,8.90
2023-02-04T08:51:02.024Z,9.00
2023-02-04T08:53:32.441Z,9.00
2023-02-04T08:56:00.223Z,9.00
2023-02-04T08:58:27.821Z,9.10
2023-02-04T09:00:55.573Z,9.20
2023-02-04T09:03:23.286Z,9.30
2023-02-04T09:05:51.031Z,9.40
2023-02-04T09:08:18.695Z,9.30
2023-02-04T09:10:46.376Z,9.60
2023-02-04T09:13:14.840Z,9.60
2023-02-04T09:15:42.462Z,9.80
2023-02-04T09:18:21.931Z,9.90
2023-02-04T09:20:50.306Z,10.00
2023-02-04T09:23:20.511Z,10.10
2023-02-04T09:25:48.777Z,9.80
2023-02-04T09:28:18.940Z,9.40
2023-02-04T09:30:47.460Z,9.40
2023-02-04T09:33:19.562Z,9.50
2023-02-04T09:35:47.228Z,9.40
2023-02-04T09:38:14.952Z,9.50
2023-02-04T09:40:47.258Z,9.50
2023-02-04T09:43:22.193Z,9.50
2023-02-04T09:45:56.601Z,9.50
2023-02-04T09:48:25.056Z,9.50
2023-02-04T09:50:59.743Z,9.60
2023-02-04T09:53:27.549Z,9.80
2023-02-04T09:55:55.184Z,9.80
2023-02-04T09:58:24.166Z,9.80
2023-02-04T10:01:21.357Z,9.90
2023-02-04T10:03:52.000Z,10.10
2023-02-04T10:06:21.661Z,10.20
2023-02-04T10:08:51.192Z,10.20
2023-02-04T10:11:21.664Z,10.10
2023-02-04T10:13:51.633Z,10.20
2023-02-04T10:16:31.888Z,10.40
2023-02-04T10:19:02.861Z,10.50
2023-02-04T10:21:36.952Z,10.50
2023-02-04T10:24:26.668Z,10.80
2023-02-04T10:26:54.993Z,11.10
2023-02-04T10:29:27.307Z,11.40
2023-02-04T10:31:55.969Z,11.20
2023-02-04T10:34:32.995Z,11.20
2023-02-04T10:37:12.359Z,11.10
2023-02-04T10:39:43.063Z,11.30
2023-02-04T10:42:22.529Z,11.40
2023-02-04T10:44:50.756Z,11.50
2023-02-04T10:47:20.216Z,11.70
2023-02-04T10:50:20.347Z,11.90
2023-02-04T10:52:51.757Z,12.30
2023-02-04T10:55:22.702Z,12.50
2023-02-04T10:57:53.269Z,12.50
2023-02-04T11:00:25.668Z,12.60
2023-02-04T11:03:10.639Z,13.00
2023-02-04T11:05:39.007Z,13.10
2023-02-04T11:08:19.686Z,12.80
2023-02-04T11:10:51.014Z,12.40
2023-02-04T11:13:27.585Z,12.20
2023-02-04T11:16:07.062Z,11.80
2023-02-04T11:18:48.930Z,11.70
2023-02-04T11:21:36.724Z,11.80
2023-02-04T11:24:16.845Z,11.90
2023-02-04T11:26:47.617Z,12.10
2023-02-04T11:29:38.200Z,12.10
2023-02-04T11:32:31.759Z,12.30
2023-02-04T11:35:11.607Z,12.80
2023-02-04T11:37:43.593Z,14.60
2023-02-04T11:40:28.933Z,17.00
2023-02-04T11:43:10.944Z,19.50
2023-02-04T11:45:42.116Z,20.20
2023-02-04T11:48:16.284Z,20.10
2023-02-04T11:50:56.037Z,20.00
2023-02-04T11:53:34.159Z,19.40
2023-02-04T11:56:01.879Z,17.50
2023-02-04T11:58:31.103Z,16.10
2023-02-04T12:00:59.571Z,15.20
2023-02-04T12:03:32.111Z,14.70
2023-02-04T12:06:01.364Z,14.20
2023-02-04T12:08:36.477Z,14.10
2023-02-04T12:11:30.401Z,14.00
2023-02-04T12:14:17.277Z,13.80
2023-02-04T12:16:52.787Z,12.90
2023-02-04T12:19:20.437Z,13.60
2023-02-04T12:21:48.129Z,15.50
2023-02-04T12:24:15.719Z,16.90
2023-02-04T12:26:43.572Z,17.90
2023-02-04T12:29:11.133Z,19.40
2023-02-04T12:31:38.853Z,19.70
2023-02-04T12:34:06.519Z,20.80
2023-02-04T12:36:34.254Z,21.50
2023-02-04T12:39:03.017Z,21.90
2023-02-04T12:41:30.768Z,21.50
2023-02-04T12:43:58.467Z,19.30
2023-02-04T12:46:29.514Z,19.00
2023-02-04T12:48:57.221Z,18.50
2023-02-04T12:51:24.877Z,18.80
2023-02-04T12:53:52.973Z,18.10
2023-02-04T12:56:20.763Z,16.80
2023-02-04T12:58:48.363Z,15.80
2023-02-04T13:01:16.151Z,14.50
2023-02-04T13:03:43.796Z,15.30
2023-02-04T13:06:11.525Z,16.50
2023-02-04T13:08:39.216Z,18.50
2023-02-04T13:11:06.878Z,19.60
2023-02-04T13:13:34.488Z,19.20
2023-02-04T13:16:02.221Z,17.30
2023-02-04T13:18:29.946Z,17.30
2023-02-04T13:20:57.610Z,17.60
2023-02-04T13:23:25.273Z,19.20
2023-02-04T13:25:52.972Z,21.40
2023-02-04T13:28:20.665Z,23.60
2023-02-04T13:30:48.359Z,24.30
2023-02-04T13:33:16.776Z,23.00
2023-02-04T13:35:45.275Z,20.80
2023-02-04T13:38:12.956Z,18.60
2023-02-04T13:40:40.647Z,17.30
2023-02-04T13:43:08.407Z,15.90
2023-02-04T13:45:36.209Z,14.80
2023-02-04T13:48:03.921Z,14.10
2023-02-04T13:50:32.089Z,13.70
2023-02-04T13:52:59.959Z,13.50
2023-02-04T13:55:27.716Z,13.50
2023-02-04T13:57:55.430Z,13.30
2023-02-04T14:00:30.514Z,13.20
2023-02-04T14:03:03.565Z,13.00
2023-02-04T14:05:31.270Z,13.10
2023-02-04T14:07:58.834Z,13.20
2023-02-04T14:10:27.095Z,13.00
2023-02-04T14:12:54.775Z,12.80
2023-02-04T14:15:25.386Z,12.60
2023-02-04T14:17:55.989Z,12.50
2023-02-04T14:20:23.881Z,13.50
2023-02-04T14:22:51.514Z,15.30
2023-02-04T14:25:19.906Z,16.70
2023-02-04T14:27:47.822Z,17.90
2023-02-04T14:30:41.738Z,18.80
2023-02-04T14:33:13.305Z,19.70
2023-02-04T14:35:41.742Z,20.20
2023-02-04T14:38:13.848Z,20.80
2023-02-04T14:40:54.236Z,20.90
2023-02-04T14:43:33.525Z,20.40
2023-02-04T14:46:12.546Z,19.20
2023-02-04T14:48:40.445Z,17.40
2023-02-04T14:51:08.145Z,16.20
2023-02-04T14:53:35.828Z,15.30
2023-02-04T14:56:03.514Z,14.60
2023-02-04T14:58:31.203Z,14.20
2023-02-04T15:00:58.936Z,13.70
2023-02-04T15:03:26.661Z,13.40
2023-02-04T15:05:54.255Z,13.30
2023-02-04T15:08:21.874Z,13.00
2023-02-04T15:10:49.498Z,13.00
2023-02-04T15:13:17.362Z,12.70
2023-02-04T15:15:45.044Z,12.50
2023-02-04T15:18:12.818Z,12.30
2023-02-04T15:20:40.501Z,12.10
2023-02-04T15:23:08.223Z,11.90
2023-02-04T15:25:35.855Z,11.70
2023-02-04T15:28:03.458Z,11.70
2023-02-04T15:30:31.347Z,11.70
2023-02-04T15:32:59.108Z,11.60
2023-02-04T15:35:26.770Z,11.40
2023-02-04T15:37:54.376Z,11.20
2023-02-04T15:40:22.066Z,11.10
2023-02-04T15:42:50.748Z,11.00
2023-02-04T15:45:18.397Z,10.90
2023-02-04T15:47:46.311Z,10.90
2023-02-04T15:50:15.227Z,10.90
2023-02-04T15:52:42.948Z,10.80
2023-02-04T15:55:10.563Z,10.70
2023-02-04T15:57:38.536Z,10.70
2023-02-04T16:00:06.968Z,10.50
2023-02-04T16:02:37.703Z,10.50
2023-02-04T16:05:06.118Z,10.30
2023-02-04T16:07:34.051Z,10.30
2023-02-04T16:10:01.710Z,10.20
2023-02-04T16:12:29.726Z,10.10
2023-02-04T16:14:57.468Z,10.00
2023-02-04T16:17:25.187Z,10.00
2023-02-04T16:19:52.767Z,9.90
2023-02-04T16:22:20.368Z,9.80
2023-02-04T16:24:48.613Z,9.70
2023-02-04T16:27:17.334Z,9.60
2023-02-04T16:29:45.043Z,9.60
2023-02-04T16:32:12.926Z,9.40
2023-02-04T16:34:40.594Z,9.30
2023-02-04T16:37:08.323Z,9.20
2023-02-04T16:39:38.951Z,9.10
2023-02-04T16:42:10.617Z,9.00
2023-02-04T16:44:38.738Z,8.90
2023-02-04T16:47:08.343Z,8.80
2023-02-04T16:49:36.645Z,8.70
2023-02-04T16:52:05.227Z,8.70
2023-02-04T16:54:33.526Z,8.60
2023-02-04T16:57:01.596Z,8.50
2023-02-04T16:59:35.170Z,8.40
2023-02-04T17:02:05.135Z,8.40
2023-02-04T17:04:36.896Z,8.30
2023-02-04T17:07:05.344Z,8.30
2023-02-04T17:09:32.981Z,8.20
2023-02-04T17:12:00.666Z,8.10
2023-02-04T17:14:28.336Z,8.10
2023-02-04T17:16:55.924Z,8.10
2023-02-04T17:19:24.301Z,8.10
2023-02-04T17:21:51.982Z,8.10
2023-02-04T17:24:19.696Z,8.10
2023-02-04T17:26:47.302Z,8.00
2023-02-04T17:29:21.932Z,8.00
2023-02-04T17:31:49.574Z,8.00
2023-02-04T17:34:17.234Z,8.00
2023-02-04T17:36:44.866Z,7.90
2023-02-04T17:39:12.573Z,7.90
2023-02-04T17:41:40.225Z,7.90
2023-02-04T17:44:08.195Z,7.80
2023-02-04T17:46:35.815Z,7.70
2023-02-04T17:49:03.706Z,7.70
2023-02-04T17:51:31.730Z,7.60
2023-02-04T17:53:59.376Z,7.60
2023-02-04T17:56:27.129Z,7.50
2023-02-04T17:58:56.028Z,7.40
2023-02-04T18:01:25.207Z,7.40
2023-02-04T18:03:53.157Z,7.30
2023-02-04T18:06:24.517Z,7.30
2023-02-04T18:08:53.141Z,7.40
2023-02-04T18:11:27.027Z,7.30
2023-02-04T18:14:04.516Z,7.30
2023-02-04T18:16:34.533Z,7.40
2023-02-04T18:19:18.445Z,7.40
2023-02-04T18:21:46.977Z,7.30
2023-02-04T18:24:34.027Z,7.30
2023-02-04T18:27:13.160Z,7.30
2023-02-04T18:29:45.199Z,7.40
2023-02-04T18:32:33.019Z,7.50
2023-02-04T18:35:04.400Z,7.40
2023-02-04T18:37:37.407Z,7.50
2023-02-04T18:40:11.626Z,7.40
2023-02-04T18:42:41.720Z,7.40
2023-02-04T18:45:29.346Z,7.30
2023-02-04T18:47:59.455Z,7.30
2023-02-04T18:50:35.093Z,7.30
2023-02-04T18:53:15.218Z,7.30
2023-02-04T18:55:51.580Z,7.30
2023-02-04T18:58:34.038Z,7.30
2023-02-04T19:01:13.542Z,7.30
2023-02-04T19:04:00.321Z,7.30
2023-02-04T19:06:38.067Z,7.30
2023-02-04T19:09:29.167Z,7.30
2023-02-04T19:11:59.057Z,7.30
2023-02-04T19:14:38.952Z,7.20
2023-02-04T19:17:22.791Z,7.30
2023-02-04T19:19:57.812Z,7.20
2023-02-04T19:22:31.893Z,7.20
2023-02-04T19:25:20.998Z,7.10
2023-02-04T19:27:56.617Z,7.20
2023-02-04T19:30:30.083Z,7.20
2023-02-04T19:33:01.341Z,7.10
2023-02-04T19:35:39.669Z,7.10
2023-02-04T19:38:42.381Z,7.10
2023-02-04T19:41:27.181Z,7.10
2023-02-04T19:44:26.849Z,7.10
2023-02-04T19:46:55.802Z,7.10
2023-02-04T19:49:25.758Z,7.10
2023-02-04T19:51:55.641Z,7.10
2023-02-04T19:54:31.447Z,7.10
2023-02-04T19:56:59.059Z,7.00
2023-02-04T19:59:35.691Z,6.90
2023-02-04T20:02:25.179Z,6.90
2023-02-04T20:04:54.822Z,6.80
2023-02-04T20:07:25.047Z,6.70
2023-02-04T20:10:18.870Z,6.70
2023-02-04T20:12:46.579Z,6.60
2023-02-04T20:15:18.611Z,6.50
2023-02-04T20:17:49.838Z,6.40
2023-02-04T20:20:26.408Z,6.40
2023-02-04T20:22:56.361Z,6.30
2023-02-04T20:25:35.719Z,6.30
2023-02-04T20:28:15.103Z,6.20
2023-02-04T20:30:43.636Z,6.20
2023-02-04T20:33:50.568Z,6.10
2023-02-04T20:36:28.352Z,6.00
2023-02-04T20:39:28.849Z,6.00
2023-02-04T20:42:16.353Z,5.90
2023-02-04T20:44:43.999Z,5.80
2023-02-04T20:47:18.713Z,5.80
2023-02-04T20:50:31.012Z,5.80
2023-02-04T20:53:07.535Z,5.80
2023-02-04T20:55:35.766Z,5.80
2023-02-04T20:58:11.175Z,5.80
2023-02-04T21:00:40.097Z,5.90
2023-02-04T21:03:25.070Z,6.00
2023-02-04T21:05:54.317Z,6.00
2023-02-04T21:08:33.598Z,6.10
2023-02-04T21:11:02.433Z,6.00
2023-02-04T21:13:32.924Z,6.10
2023-02-04T21:16:00.715Z,6.10
2023-02-04T21:18:29.644Z,6.00
2023-02-04T21:20:57.543Z,6.20
2023-02-04T21:23:26.369Z,6.00
2023-02-04T21:25:54.020Z,6.00
2023-02-04T21:28:21.804Z,6.00
2023-02-04T21:30:49.605Z,6.00
2023-02-04T21:33:17.403Z,5.90
2023-02-04T21:35:45.369Z,6.00
2023-02-04T21:38:13.151Z,5.80
2023-02-04T21:40:41.142Z,5.80
2023-02-04T21:43:09.201Z,5.80
2023-02-04T21:45:37.900Z,5.80
2023-02-04T21:48:07.750Z,5.90
2023-02-04T21:50:38.435Z,5.90
2023-02-04T21:53:08.026Z,5.90
2023-02-04T21:55:36.485Z,5.90
2023-02-04T21:58:05.347Z,6.00
2023-02-04T22:00:33.698Z,5.90
2023-02-04T22:03:01.615Z,5.90
2023-02-04T22:05:29.279Z,5.90
2023-02-04T22:07:59.993Z,5.90
2023-02-04T22:10:27.685Z,5.80
2023-02-04T22:12:55.388Z,5.80
2023-02-04T22:15:24.238Z,5.80
2023-02-04T22:17:53.201Z,5.80
2023-02-04T22:20:23.153Z,5.80
2023-02-04T22:22:51.295Z,5.70
2023-02-04T22:25:21.792Z,5.70
2023-02-04T22:27:49.754Z,5.70
2023-02-04T22:30:18.286Z,5.70
2023-02-04T22:32:48.292Z,5.80
2023-02-04T22:35:16.200Z,5.70
2023-02-04T22:37:43.880Z,5.70
2023-02-04T22:40:12.727Z,5.80
2023-02-04T22:42:40.523Z,5.70
2023-02-04T22:45:10.207Z,5.70
2023-02-04T22:47:38.491Z,5.70
2023-02-04T22:50:06.713Z,5.70
2023-02-04T22:52:34.336Z,5.70
2023-02-04T22:55:02.093Z,5.70
2023-02-04T22:57:29.697Z,5.70
2023-02-04T22:59:57.384Z,5.70
2023-02-04T23:02:25.008Z,5.60
2023-02-04T23:04:52.616Z,5.60
2023-02-04T23:07:20.231Z,5.60
2023-02-04T23:09:47.821Z,5.60
2023-02-04T23:12:15.539Z,5.50
2023-02-04T23:14:45.782Z,5.60
2023-02-04T23:17:14.547Z,5.60
2023-02-04T23:19:42.329Z,5.50
2023-02-04T23:22:11.463Z,5.60
2023-02-04T23:24:39.892Z,5.60
2023-02-04T23:27:09.331Z,5.70
2023-02-04T23:29:37.548Z,5.70
2023-02-04T23:32:05.298Z,5.70
2023-02-04T23:34:33.139Z,5.70
2023-02-04T23:37:00.811Z,5.70
2023-02-04T23:39:28.758Z,5.70
2023-02-04T23:41:56.856Z,5.70
2023-02-04T23:44:24.573Z,5.80
2023-02-04T23:46:52.237Z,5.80
2023-02-04T23:49:19.857Z,5.70
2023-02-04T23:51:47.533Z,5.70
2023-02-04T23:54:15.351Z,5.60
2023-02-04T23:56:43.026Z,5.60
2023-02-04T23:59:10.636Z,5.50
